Time;durP1;ratioP1;P1;durP2;ratioP2;P2;SDS_P1;SDS_P2;PMS_P1;PMS_P2;Temp;Humidity;BMP_temperature;BMP_pressure;BME280_temperature;BME280_humidity;BME280_pressure;Samples;Min_cycle;Max_cycle;Signal;HPM_P1;HPM_P2
2022/09/12 00:01:27;;;;;;;20.45;14.27;;;;;;;13.32;85.89;101679.97;4873786;29;20049;-76
2022/09/12 00:03:56;;;;;;;23.58;15.20;;;;;;;13.31;84.82;101683.56;4858312;29;20439;-76
2022/09/12 00:06:28;;;;;;;16.55;14.73;;;;;;;13.32;84.92;101682.63;4859646;29;20036;-76
2022/09/12 00:08:56;;;;;;;20.65;14.75;;;;;;;13.30;85.88;101677.34;4858184;29;20052;-76
2022/09/12 00:11:22;;;;;;;17.35;15.45;;;;;;;13.30;86.65;101679.13;4846441;29;20375;-76
2022/09/12 00:13:48;;;;;;;23.25;16.33;;;;;;;13.27;86.25;101673.88;4858054;29;20419;-76
2022/09/12 00:16:16;;;;;;;18.40;15.02;;;;;;;13.27;85.48;101671.22;4859633;29;20061;-76
2022/09/12 00:18:43;;;;;;;22.33;15.30;;;;;;;13.25;87.07;101671.22;4858140;29;20048;-76
2022/09/12 00:21:09;;;;;;;24.40;15.65;;;;;;;13.22;87.42;101667.72;4859483;29;20132;-76
2022/09/12 00:23:34;;;;;;;22.38;16.50;;;;;;;13.18;87.49;101668.69;4857898;29;20124;-76
2022/09/12 00:26:04;;;;;;;22.30;17.58;;;;;;;13.12;89.41;101662.59;4842831;29;20124;-76
2022/09/12 00:28:30;;;;;;;21.87;18.17;;;;;;;13.09;89.24;101660.00;4859360;29;20055;-76
2022/09/12 00:30:55;;;;;;;19.27;16.65;;;;;;;13.06;87.86;101657.41;4870593;29;20291;-76
2022/09/12 00:33:21;;;;;;;21.90;16.95;;;;;;;13.05;88.55;101654.75;4852949;29;20173;-76
2022/09/12 00:35:49;;;;;;;21.20;16.88;;;;;;;13.04;88.64;101658.34;4857867;29;20399;-76
2022/09/12 00:38:15;;;;;;;21.17;16.95;;;;;;;13.04;87.75;101666.31;4859265;29;20038;-76
2022/09/12 00:40:42;;;;;;;20.30;17.50;;;;;;;13.01;88.30;101659.28;4859040;29;20037;-76
2022/09/12 00:43:26;;;;;;;24.35;19.48;;;;;;;13.03;89.51;101657.47;4859427;29;20049;-76
2022/09/12 00:45:53;;;;;;;26.88;18.90;;;;;;;13.02;89.69;101654.81;4858910;29;20451;-75
2022/09/12 00:48:29;;;;;;;22.83;19.38;;;;;;;12.97;89.95;101654.03;4859287;29;20045;-76
2022/09/12 00:50:55;;;;;;;23.73;19.35;;;;;;;12.95;88.75;101661.16;4858833;29;20120;-75
2022/09/12 00:53:20;;;;;;;26.00;19.15;;;;;;;12.90;88.45;101646.16;4852147;29;20153;-76
2022/09/12 00:55:50;;;;;;;25.33;19.77;;;;;;;12.89;89.65;101646.19;4858045;29;20041;-76
2022/09/12 00:58:28;;;;;;;22.98;18.65;;;;;;;12.86;89.89;101640.94;4857835;29;20060;-75
2022/09/12 01:00:56;;;;;;;24.45;19.58;;;;;;;12.85;89.82;101639.19;4846845;29;20046;-76
2022/09/12 01:03:22;;;;;;;26.38;20.08;;;;;;;12.80;90.27;101638.38;4858252;29;20045;-76
2022/09/12 01:06:14;;;;;;;26.20;19.65;;;;;;;12.80;89.10;101639.25;4857633;29;20390;-76
2022/09/12 01:08:43;;;;;;;25.40;20.55;;;;;;;12.79;91.33;101628.69;4846979;29;20518;-76
2022/09/12 01:11:10;;;;;;;25.73;20.13;;;;;;;12.77;90.09;101641.97;4859157;29;20064;-75
2022/09/12 01:13:36;;;;;;;26.02;20.05;;;;;;;12.74;90.18;101635.84;4857397;29;20105;-76
2022/09/12 01:16:06;;;;;;;24.60;19.95;;;;;;;12.69;90.34;101636.81;4857549;29;20044;-76
2022/09/12 01:18:41;;;;;;;25.30;20.40;;;;;;;12.69;90.17;101636.81;4856327;29;20037;-76
2022/09/12 01:21:25;;;;;;;31.88;20.80;;;;;;;12.65;90.13;101626.25;4869909;29;20542;-76
2022/09/12 01:23:56;;;;;;;24.15;19.60;;;;;;;12.62;89.72;101627.19;4860018;29;20065;-75
2022/09/12 01:27:03;;;;;;;24.02;17.95;;;;;;;12.63;88.98;101631.59;4858739;29;20148;-76
2022/09/12 01:29:55;;;;;;;23.98;19.63;;;;;;;12.60;88.87;101622.81;4858573;29;20120;-76
2022/09/12 01:32:36;;;;;;;26.13;20.25;;;;;;;12.56;90.00;101624.66;4858902;29;20030;-75
2022/09/12 01:35:07;;;;;;;21.88;17.65;;;;;;;12.53;88.20;101619.38;4857237;29;20136;-75
2022/09/12 01:37:53;;;;;;;24.58;19.30;;;;;;;12.56;88.92;101615.78;4858665;29;20041;-75
2022/09/12 01:40:26;;;;;;;24.20;19.67;;;;;;;12.52;89.29;101608.78;4858505;29;20056;-75
2022/09/12 01:43:04;;;;;;;24.92;19.27;;;;;;;12.50;89.16;101611.47;4858719;29;20192;-76
2022/09/12 01:45:38;;;;;;;26.92;20.85;;;;;;;12.49;90.91;101609.72;4858331;29;20128;-76
2022/09/12 01:48:15;;;;;;;25.48;19.73;;;;;;;12.47;90.63;101604.44;4849238;29;20108;-76
2022/09/12 01:50:57;;;;;;;23.92;20.52;;;;;;;12.44;89.11;101606.28;4858235;29;20048;-76
2022/09/12 01:53:28;;;;;;;25.50;19.75;;;;;;;12.43;88.38;101601.84;4857125;29;20048;-76
2022/09/12 01:56:02;;;;;;;24.15;19.10;;;;;;;12.47;90.92;101601.78;4879471;29;20038;-75
2022/09/12 01:58:35;;;;;;;27.88;20.77;;;;;;;12.48;91.44;101592.88;4840027;29;20053;-76
2022/09/12 02:01:15;;;;;;;26.00;20.05;;;;;;;12.48;90.35;101592.88;4853059;29;20038;-75
2022/09/12 02:04:07;;;;;;;23.38;18.88;;;;;;;12.44;88.84;101583.25;4858335;29;20041;-75
2022/09/12 02:06:47;;;;;;;25.27;20.13;;;;;;;12.47;90.44;101595.59;4858977;29;20397;-75
2022/09/12 02:09:35;;;;;;;26.63;19.63;;;;;;;12.48;90.20;101590.22;4860422;29;20384;-75
2022/09/12 02:12:03;;;;;;;26.17;19.17;;;;;;;12.41;90.43;101577.97;4860464;29;20052;-75
2022/09/12 02:14:54;;;;;;;25.02;19.67;;;;;;;12.44;89.43;101582.38;4858954;29;20033;-75
2022/09/12 02:17:23;;;;;;;23.52;18.70;;;;;;;12.36;88.22;101578.94;4852611;29;20053;-75
2022/09/12 02:20:07;;;;;;;23.83;18.70;;;;;;;12.38;89.57;101572.69;4860941;29;20508;-75
2022/09/12 02:22:36;;;;;;;25.70;19.58;;;;;;;12.33;89.40;101573.69;4865175;29;20450;-76
2022/09/12 02:25:06;;;;;;;25.70;20.33;;;;;;;12.31;89.78;101576.38;4866740;29;20037;-75
2022/09/12 02:27:39;;;;;;;29.85;21.10;;;;;;;12.30;90.41;101577.28;4867970;29;20470;-75
2022/09/12 02:30:07;;;;;;;27.48;20.20;;;;;;;12.30;90.55;101571.09;4877308;29;20040;-75
2022/09/12 02:32:42;;;;;;;25.58;20.35;;;;;;;12.27;90.91;101578.22;4853368;29;20117;-75
2022/09/12 02:35:14;;;;;;;23.63;18.08;;;;;;;12.25;90.29;101584.44;4864483;29;20076;-75
2022/09/12 02:37:59;;;;;;;25.42;19.83;;;;;;;12.27;89.71;101583.53;4863020;29;20040;-75
2022/09/12 02:40:25;;;;;;;27.33;19.48;;;;;;;12.24;89.50;101590.69;4861379;29;20486;-75
2022/09/12 02:42:51;;;;;;;28.00;20.48;;;;;;;12.22;90.75;101582.72;4859973;29;20136;-75
2022/09/12 02:45:16;;;;;;;25.38;20.42;;;;;;;12.21;91.87;101586.25;4858876;29;20036;-75
2022/09/12 02:48:01;;;;;;;23.95;20.15;;;;;;;12.21;91.52;101577.44;4860406;29;20169;-75
2022/09/12 02:50:28;;;;;;;22.73;18.63;;;;;;;12.12;89.78;101575.81;4875918;29;20034;-75
2022/09/12 02:52:58;;;;;;;25.45;19.55;;;;;;;12.12;90.91;101572.28;4870215;29;20060;-75
2022/09/12 02:55:25;;;;;;;25.92;20.85;;;;;;;12.12;91.77;101566.97;4866427;29;20140;-75
2022/09/12 02:57:51;;;;;;;26.50;18.25;;;;;;;12.07;90.83;101566.16;4879399;29;20097;-74
2022/09/12 03:00:16;;;;;;;25.90;19.45;;;;;;;12.05;90.75;101563.53;4862103;29;20127;-74
2022/09/12 03:03:08;;;;;;;26.73;20.45;;;;;;;12.07;91.32;101563.50;4850227;29;20037;-74
2022/09/12 03:05:43;;;;;;;25.63;20.02;;;;;;;12.07;91.57;101559.09;4864318;29;20151;-74
2022/09/12 03:08:18;;;;;;;23.90;19.98;;;;;;;12.09;92.06;101551.09;4869601;29;20100;-75
2022/09/12 03:11:02;;;;;;;28.25;21.15;;;;;;;12.07;91.61;101548.47;4863822;29;20037;-75
2022/09/12 03:13:43;;;;;;;25.35;20.95;;;;;;;12.10;91.94;101552.84;4870889;29;20033;-75
2022/09/12 03:16:14;;;;;;;26.92;20.85;;;;;;;12.10;91.89;101551.06;4861366;29;20041;-75
2022/09/12 03:18:42;;;;;;;;;;;;;;;12.18;89.96;101554.47;4858821;29;20052;-75
2022/09/12 03:21:27;;;;;;;26.52;21.27;;;;;;;12.11;92.56;101552.81;4862897;29;19975;-75
2022/09/12 03:24:25;;;;;;;28.35;20.83;;;;;;;12.11;92.36;101555.47;4866435;29;20057;-75
2022/09/12 03:27:03;;;;;;;28.30;21.40;;;;;;;12.09;92.25;101549.34;4879167;29;20470;-74
2022/09/12 03:29:29;;;;;;;27.02;20.80;;;;;;;12.09;91.78;101546.69;4865586;29;20049;-75
2022/09/12 03:31:57;;;;;;;27.85;21.13;;;;;;;12.11;92.59;101552.81;4871769;29;20529;-74
2022/09/12 03:34:25;;;;;;;26.33;20.08;;;;;;;12.11;92.19;101546.63;4860379;29;20037;-74
2022/09/12 03:36:51;;;;;;;25.42;20.02;;;;;;;12.11;91.80;101542.19;4866178;29;20057;-74
2022/09/12 03:39:17;;;;;;;28.33;21.23;;;;;;;12.13;92.42;101542.19;4860083;29;20482;-74
2022/09/12 03:41:42;;;;;;;29.15;21.95;;;;;;;12.13;92.89;101542.19;4872043;29;20069;-75
2022/09/12 03:44:08;;;;;;;26.75;20.63;;;;;;;12.12;92.34;101541.31;4858837;29;20036;-74
2022/09/12 03:46:33;;;;;;;23.65;18.98;;;;;;;12.13;92.08;101539.53;4872063;29;20035;-74
2022/09/12 03:48:59;;;;;;;28.98;20.17;;;;;;;12.12;92.27;101541.31;4859858;29;20323;-74
2022/09/12 03:51:24;;;;;;;25.35;20.23;;;;;;;12.11;93.03;101544.84;4870192;29;20101;-74
2022/09/12 03:53:50;;;;;;;27.58;21.98;;;;;;;12.11;93.56;101544.84;4877129;29;20080;-74
2022/09/12 03:56:16;;;;;;;23.25;19.55;;;;;;;12.11;92.61;101534.22;4872514;29;20061;-74
2022/09/12 03:58:42;;;;;;;29.65;20.77;;;;;;;12.11;93.29;101533.34;4862461;29;20052;-74
2022/09/12 04:01:11;;;;;;;29.05;19.92;;;;;;;12.10;93.60;101535.13;4852118;29;20120;-75
2022/09/12 04:03:41;;;;;;;29.52;20.30;;;;;;;12.11;92.90;101525.38;4859683;29;20498;-74
2022/09/12 04:06:08;;;;;;;31.95;21.25;;;;;;;12.13;92.93;101529.78;4859955;29;20038;-75
2022/09/12 04:08:35;;;;;;;24.08;19.48;;;;;;;12.11;92.51;101541.31;4872814;29;20036;-74
2022/09/12 04:11:06;;;;;;;27.33;21.38;;;;;;;12.11;93.18;101528.03;4877021;29;20037;-74
2022/09/12 04:13:34;;;;;;;33.40;21.55;;;;;;;12.13;94.01;101528.91;4864725;29;20041;-75
2022/09/12 04:15:59;;;;;;;27.25;20.42;;;;;;;12.12;93.97;101519.19;4859718;29;20063;-75
2022/09/12 04:18:26;;;;;;;27.63;19.90;;;;;;;12.13;92.83;101526.25;4857485;29;20140;-75
2022/09/12 04:20:51;;;;;;;24.58;19.83;;;;;;;12.12;93.26;101522.72;4857868;29;20076;-75
2022/09/12 04:23:17;;;;;;;27.15;21.20;;;;;;;12.12;93.29;101520.06;4866906;29;20053;-74
2022/09/12 04:25:43;;;;;;;26.67;21.20;;;;;;;12.12;93.92;101517.41;4842882;29;20079;-74
2022/09/12 04:28:09;;;;;;;26.25;19.98;;;;;;;12.14;94.06;101517.38;4872566;29;20029;-75
2022/09/12 04:30:35;;;;;;;25.38;18.25;;;;;;;12.17;93.13;101520.84;4868130;29;20440;-75
2022/09/12 04:33:00;;;;;;;22.80;18.27;;;;;;;12.18;92.77;101514.63;4865037;29;20541;-74
2022/09/12 04:35:26;;;;;;;27.40;19.88;;;;;;;12.20;92.58;101514.63;4868341;29;20025;-74
2022/09/12 04:37:52;;;;;;;30.08;20.85;;;;;;;12.22;93.22;101511.03;4871147;29;20088;-74
2022/09/12 04:40:18;;;;;;;30.10;21.60;;;;;;;12.24;94.16;101505.69;4859203;29;20037;-74
2022/09/12 04:42:43;;;;;;;27.77;21.30;;;;;;;12.26;94.86;101506.53;4858190;29;20052;-74
2022/09/12 04:45:09;;;;;;;27.75;21.48;;;;;;;12.25;94.55;101500.34;4854494;29;20033;-74
2022/09/12 04:47:35;;;;;;;27.63;20.13;;;;;;;12.26;94.27;101496.81;4859969;29;20132;-74
2022/09/12 04:50:00;;;;;;;28.63;21.38;;;;;;;12.28;94.74;101502.06;4864376;29;20040;-74
2022/09/12 04:52:26;;;;;;;32.70;22.48;;;;;;;12.26;94.93;101502.13;4859019;29;20081;-74
2022/09/12 04:54:52;;;;;;;28.42;21.02;;;;;;;12.26;94.32;101506.53;4875538;29;20049;-74
2022/09/12 04:57:17;;;;;;;28.63;22.23;;;;;;;12.27;94.64;101506.50;4856824;29;20041;-74
2022/09/12 04:59:43;;;;;;;29.80;22.33;;;;;;;12.31;94.93;101503.78;4877440;29;20044;-74
2022/09/12 05:02:08;;;;;;;29.17;22.67;;;;;;;12.31;95.33;101509.09;4861088;29;20029;-74
2022/09/12 05:04:34;;;;;;;30.20;20.25;;;;;;;12.32;94.85;101509.09;4876160;29;20041;-74
2022/09/12 05:07:00;;;;;;;36.88;22.15;;;;;;;12.32;94.88;101505.56;4864460;29;20050;-74
2022/09/12 05:09:25;;;;;;;32.10;21.63;;;;;;;12.33;95.56;101505.50;4869331;29;20106;-74
2022/09/12 05:11:51;;;;;;;30.88;21.73;;;;;;;12.34;95.58;101503.72;4858354;29;20046;-74
2022/09/12 05:14:16;;;;;;;29.67;21.05;;;;;;;12.35;94.98;101519.66;4869963;29;20643;-74
2022/09/12 05:16:42;;;;;;;31.45;22.48;;;;;;;12.35;95.56;101514.34;4858862;29;20065;-74
2022/09/12 05:19:10;;;;;;;29.02;20.40;;;;;;;12.39;95.13;101517.81;4859089;29;20064;-74
2022/09/12 05:21:35;;;;;;;33.63;22.13;;;;;;;12.38;95.00;101516.91;4869063;29;20062;-74
2022/09/12 05:24:01;;;;;;;33.10;21.13;;;;;;;12.40;95.29;101516.91;4868464;29;20458;-74
2022/09/12 05:26:26;;;;;;;25.92;20.75;;;;;;;12.41;95.20;101516.00;4858632;29;20037;-74
2022/09/12 05:28:53;;;;;;;33.63;21.63;;;;;;;12.43;95.35;101512.41;4867388;29;20045;-74
2022/09/12 05:31:24;;;;;;;25.50;18.67;;;;;;;12.44;93.82;101518.63;4877441;29;20040;-74
2022/09/12 05:33:51;;;;;;;27.33;20.65;;;;;;;12.47;94.64;101521.19;4868237;29;20228;-74
2022/09/12 05:36:19;;;;;;;26.98;21.05;;;;;;;12.47;94.21;101505.25;4858405;29;20037;-74
2022/09/12 05:38:45;;;;;;;34.42;20.75;;;;;;;12.51;94.93;101511.38;4866188;29;20429;-74
2022/09/12 05:41:16;;;;;;;37.05;20.85;;;;;;;12.51;94.53;101514.91;4877226;29;20094;-74
2022/09/12 05:43:42;;;;;;;34.38;20.38;;;;;;;12.50;93.81;101515.81;4874452;29;20045;-75
2022/09/12 05:46:15;;;;;;;44.38;21.13;;;;;;;12.55;93.79;101529.03;4862270;29;20410;-74
2022/09/12 05:48:43;;;;;;;45.75;18.02;;;;;;;12.55;92.18;101519.28;4860583;29;20368;-74
2022/09/12 05:51:18;;;;;;;50.42;21.83;;;;;;;12.56;93.21;101513.06;4873178;29;20132;-74
2022/09/12 05:53:45;;;;;;;38.38;21.23;;;;;;;12.59;94.07;101520.97;4860355;29;20038;-74
2022/09/12 05:56:15;;;;;;;41.65;21.75;;;;;;;12.61;94.47;101515.59;4867693;29;20034;-74
2022/09/12 05:58:45;;;;;;;32.65;20.90;;;;;;;12.65;95.04;101517.31;4860918;29;20060;-74
2022/09/12 06:01:16;;;;;;;27.27;18.30;;;;;;;12.67;94.76;101527.00;4862077;29;20033;-74
2022/09/12 06:03:48;;;;;;;30.58;20.92;;;;;;;12.70;94.43;101536.69;4860637;29;20042;-74
2022/09/12 06:06:17;;;;;;;30.58;20.50;;;;;;;12.72;94.44;101537.53;4868343;29;20136;-75
2022/09/12 06:08:49;;;;;;;35.35;21.80;;;;;;;12.74;94.77;101527.75;4873322;29;20844;-74
2022/09/12 06:11:20;;;;;;;33.63;21.10;;;;;;;12.76;94.94;101527.72;4871615;29;20495;-74
2022/09/12 06:13:46;;;;;;;26.98;19.27;;;;;;;12.75;93.64;101526.84;4863786;29;20041;-74
2022/09/12 06:16:19;;;;;;;27.58;21.15;;;;;;;12.75;94.66;101523.31;4872673;29;20036;-74
2022/09/12 06:18:50;;;;;;;30.63;21.30;;;;;;;12.74;95.20;101527.75;4861534;29;20490;-74
2022/09/12 06:21:16;;;;;;;;;;;;;;;12.82;93.70;101527.59;4868530;29;20045;-74
2022/09/12 06:23:42;;;;;;;31.02;21.77;;;;;;;12.78;95.26;101523.25;4870187;29;19928;-74
2022/09/12 06:26:09;;;;;;;26.40;19.05;;;;;;;12.75;94.02;101518.88;4862315;29;20037;-74
2022/09/12 06:28:37;;;;;;;45.15;21.20;;;;;;;12.75;94.28;101518.00;4870832;29;20033;-74
2022/09/12 06:31:04;;;;;;;34.10;22.58;;;;;;;12.74;94.91;101524.25;4875225;29;20045;-74
2022/09/12 06:33:35;;;;;;;30.38;22.13;;;;;;;12.75;95.23;101524.19;4880041;29;20056;-74
2022/09/12 06:36:10;;;;;;;33.72;22.08;;;;;;;12.76;95.02;101517.09;4872841;29;20549;-75
2022/09/12 06:38:37;;;;;;;29.27;20.92;;;;;;;12.76;95.46;101519.75;4861435;29;20076;-74
2022/09/12 06:41:04;;;;;;;36.13;22.27;;;;;;;12.75;95.59;101516.22;4860203;29;20189;-74
2022/09/12 06:43:30;;;;;;;29.85;20.60;;;;;;;12.77;95.22;101522.38;4874294;29;20033;-74
2022/09/12 06:45:56;;;;;;;29.08;21.58;;;;;;;12.79;95.40;101515.25;4854406;29;20140;-74
2022/09/12 06:48:21;;;;;;;26.75;18.95;;;;;;;12.87;94.66;101515.97;4855199;29;20207;-74
2022/09/12 06:51:06;;;;;;;37.95;23.23;;;;;;;12.98;95.78;101515.75;4869531;29;20040;-74
2022/09/12 06:53:33;;;;;;;27.73;20.85;;;;;;;13.07;95.88;101517.34;4870930;29;20456;-75
2022/09/12 06:56:01;;;;;;;30.95;22.08;;;;;;;13.14;95.29;101518.97;4860036;29;20487;-74
2022/09/12 06:58:27;;;;;;;31.70;22.95;;;;;;;13.21;95.48;101515.25;4870481;29;20089;-75
2022/09/12 07:01:04;;;;;;;34.92;21.58;;;;;;;13.29;94.64;101515.13;4844292;29;20559;-74
2022/09/12 07:03:30;;;;;;;32.58;22.52;;;;;;;13.38;95.09;101519.34;4862381;29;20037;-74
2022/09/12 07:05:55;;;;;;;29.35;20.52;;;;;;;13.41;94.35;101517.50;4870922;29;20104;-74
2022/09/12 07:08:20;;;;;;;32.13;21.08;;;;;;;13.50;94.13;101503.09;4860824;29;20049;-74
2022/09/12 07:10:46;;;;;;;29.45;21.70;;;;;;;13.63;94.36;101506.38;4878854;29;20086;-74
2022/09/12 07:13:12;;;;;;;29.92;21.92;;;;;;;13.73;95.67;101499.91;4879278;29;20053;-75
2022/09/12 07:15:38;;;;;;;28.55;21.50;;;;;;;13.81;94.99;101503.25;4864591;29;20037;-74
2022/09/12 07:18:03;;;;;;;29.23;20.85;;;;;;;13.85;94.90;101502.28;4867110;29;20703;-75
2022/09/12 07:20:31;;;;;;;24.63;17.60;;;;;;;13.91;93.92;101502.09;4861905;29;20463;-74
2022/09/12 07:22:58;;;;;;;29.58;22.13;;;;;;;14.05;95.01;101499.09;4859066;29;20041;-74
2022/09/12 07:25:23;;;;;;;29.33;21.92;;;;;;;14.14;94.05;101497.97;4860353;29;20132;-75
2022/09/12 07:27:49;;;;;;;29.30;20.55;;;;;;;14.27;93.27;101498.50;4860432;29;20503;-74
2022/09/12 07:30:15;;;;;;;35.72;21.92;;;;;;;14.37;93.60;101495.56;4860515;29;20033;-74
2022/09/12 07:32:40;;;;;;;27.52;20.08;;;;;;;14.47;92.65;101504.19;4860554;29;20291;-74
2022/09/12 07:35:06;;;;;;;29.35;21.10;;;;;;;14.58;93.40;101510.13;4878185;29;20037;-74
2022/09/12 07:37:31;;;;;;;30.02;22.73;;;;;;;14.71;93.51;101510.69;4859236;29;20485;-75
2022/09/12 07:39:58;;;;;;;28.13;19.48;;;;;;;14.81;91.76;101506.81;4873148;29;20111;-75
2022/09/12 07:42:23;;;;;;;28.98;21.77;;;;;;;14.94;93.70;101509.13;4858965;29;20041;-75
2022/09/12 07:44:49;;;;;;;22.98;18.90;;;;;;;15.10;92.54;101507.75;4858746;29;20046;-75
2022/09/12 07:47:15;;;;;;;28.60;20.17;;;;;;;15.22;91.57;101510.03;4860167;29;20033;-75
2022/09/12 07:49:40;;;;;;;25.92;20.05;;;;;;;15.33;91.20;101507.06;4843219;29;20557;-75
2022/09/12 07:52:06;;;;;;;31.23;21.65;;;;;;;15.47;92.07;101515.50;4858731;29;20075;-75
2022/09/12 07:54:32;;;;;;;28.20;20.42;;;;;;;15.58;91.10;101508.94;4870980;29;20053;-75
2022/09/12 07:56:57;;;;;;;30.42;20.65;;;;;;;15.68;90.06;101516.63;4865440;29;20033;-75
2022/09/12 07:59:23;;;;;;;26.17;19.58;;;;;;;15.76;89.47;101516.41;4876944;29;20469;-75
2022/09/12 08:01:48;;;;;;;28.50;20.85;;;;;;;15.93;90.60;101517.66;4863572;29;20053;-75
2022/09/12 08:04:14;;;;;;;28.10;19.35;;;;;;;16.01;88.84;101511.09;4859248;29;20038;-75
2022/09/12 08:06:40;;;;;;;22.70;17.38;;;;;;;16.10;88.57;101520.63;4855486;29;20050;-75
2022/09/12 08:09:06;;;;;;;27.92;19.50;;;;;;;16.22;88.32;101517.53;4840011;29;20026;-78
2022/09/12 08:11:32;;;;;;;28.38;18.00;;;;;;;16.33;87.48;101515.34;4863720;29;20100;-78
2022/09/12 08:13:58;;;;;;;23.83;18.48;;;;;;;16.47;87.29;101517.53;4850580;29;20036;-78
2022/09/12 08:16:29;;;;;;;29.85;18.45;;;;;;;16.60;87.43;101514.41;4868844;29;20029;-78
2022/09/12 08:18:56;;;;;;;29.80;19.08;;;;;;;16.72;87.48;101514.84;4857951;29;20041;-78
2022/09/12 08:21:24;;;;;;;21.35;15.90;;;;;;;16.84;85.11;101521.59;4858236;29;20041;-78
2022/09/12 08:23:59;;;;;;;23.15;17.83;;;;;;;16.96;86.35;101512.19;4842447;29;20057;-78
2022/09/12 08:26:25;;;;;;;26.60;16.88;;;;;;;17.05;83.88;101519.88;4876748;29;20426;-78
2022/09/12 08:28:52;;;;;;;22.42;17.67;;;;;;;17.13;84.40;101515.09;4851243;29;20389;-78
2022/09/12 08:31:19;;;;;;;21.58;17.20;;;;;;;17.20;83.61;101513.94;4859312;29;20034;-78
2022/09/12 08:33:45;;;;;;;19.73;15.68;;;;;;;17.28;83.31;101518.13;4844644;29;20439;-78
2022/09/12 08:36:13;;;;;;;23.20;16.42;;;;;;;17.37;84.29;101523.13;4859647;29;20049;-78
2022/09/12 08:38:41;;;;;;;23.25;17.27;;;;;;;17.48;82.28;101523.59;4864669;29;20040;-78
2022/09/12 08:41:18;;;;;;;21.05;16.13;;;;;;;17.65;83.29;101530.06;4878049;29;20354;-78
2022/09/12 08:43:59;;;;;;;24.55;17.30;;;;;;;17.79;82.18;101516.97;4847083;29;20049;-78
2022/09/12 08:46:56;;;;;;;21.15;17.58;;;;;;;17.89;82.61;101515.69;4856700;29;20029;-78
2022/09/12 08:49:27;;;;;;;24.02;17.40;;;;;;;18.06;81.71;101517.66;4876154;29;20143;-78
2022/09/12 08:51:56;;;;;;;21.65;15.73;;;;;;;18.19;80.78;101516.19;4862522;29;20513;-78
2022/09/12 08:54:27;;;;;;;22.02;16.00;;;;;;;18.27;80.29;101510.50;4877361;29;20420;-78
2022/09/12 08:57:01;;;;;;;20.58;15.23;;;;;;;18.40;80.58;101519.78;4852630;29;20102;-78
2022/09/12 08:59:37;;;;;;;24.13;16.52;;;;;;;18.55;78.91;101510.19;4858808;29;20038;-78
2022/09/12 09:02:12;;;;;;;18.83;15.05;;;;;;;18.64;78.24;101516.91;4870791;29;20053;-79
2022/09/12 09:05:28;;;;;;;21.08;15.93;;;;;;;18.82;79.79;101516.16;4867837;29;20127;-79
2022/09/12 09:08:09;;;;;;;19.35;15.35;;;;;;;18.88;77.31;101513.16;4840602;29;20052;-79
2022/09/12 09:11:07;;;;;;;16.15;14.27;;;;;;;19.01;77.80;101505.41;4861324;29;20206;-79
2022/09/12 09:16:42;;;;;;;24.13;13.85;;;;;;;19.35;76.06;101498.44;4877985;29;20037;-79
2022/09/12 09:19:41;;;;;;;18.48;13.00;;;;;;;19.50;76.84;101491.47;4861729;29;20514;-79
2022/09/12 09:22:19;;;;;;;15.52;13.30;;;;;;;19.63;75.72;101494.41;4855913;29;20525;-79
2022/09/12 09:24:50;;;;;;;17.90;13.55;;;;;;;19.77;74.18;101497.31;4867785;29;20045;-79
2022/09/12 09:27:25;;;;;;;21.52;13.88;;;;;;;19.91;74.66;101499.34;4881495;29;20037;-79
2022/09/12 09:29:53;;;;;;;14.20;12.27;;;;;;;20.05;73.68;101491.41;4866342;29;20037;-79
2022/09/12 09:32:26;;;;;;;18.17;12.13;;;;;;;20.10;72.77;101496.56;4880006;29;20029;-79
2022/09/12 09:34:51;;;;;;;19.85;12.77;;;;;;;20.15;70.42;101487.34;4867674;29;20112;-79
2022/09/12 09:37:22;;;;;;;13.93;11.30;;;;;;;20.27;71.32;101484.94;4872702;29;20053;-79
2022/09/12 09:40:06;;;;;;;13.00;9.55;;;;;;;20.40;71.16;101491.44;4867691;29;20047;-79
2022/09/12 09:42:40;;;;;;;13.57;10.05;;;;;;;20.48;69.38;101483.81;4869456;29;20038;-79
2022/09/12 09:45:19;;;;;;;13.55;9.38;;;;;;;20.61;69.43;101486.75;4866063;29;20137;-79
2022/09/12 09:48:23;;;;;;;12.77;8.38;;;;;;;20.80;70.39;101474.03;4869582;29;20076;-80
2022/09/12 09:50:49;;;;;;;13.75;9.48;;;;;;;20.91;67.58;101476.13;4841007;29;20046;-80
2022/09/12 09:53:36;;;;;;;16.42;9.63;;;;;;;20.95;67.55;101472.31;4854255;29;20669;-79
2022/09/12 09:56:08;;;;;;;15.27;9.77;;;;;;;21.09;67.79;101467.97;4852323;29;20087;-79
2022/09/12 09:58:35;;;;;;;12.02;8.55;;;;;;;21.19;65.34;101461.13;4861964;29;20045;-79
2022/09/12 10:01:04;;;;;;;13.07;9.10;;;;;;;21.29;66.11;101450.69;4860813;29;20048;-79
2022/09/12 10:03:46;;;;;;;10.43;7.83;;;;;;;21.42;65.25;101459.84;4863721;29;20097;-80
2022/09/12 10:06:18;;;;;;;11.75;9.45;;;;;;;21.58;63.86;101454.44;4869507;29;20422;-79
2022/09/12 10:08:43;;;;;;;12.77;8.68;;;;;;;21.73;63.13;101447.28;4860254;29;20124;-79
2022/09/12 10:11:15;;;;;;;10.55;7.63;;;;;;;21.89;64.19;101448.13;4871129;29;20120;-79
2022/09/12 10:13:53;;;;;;;11.75;7.05;;;;;;;22.04;63.56;101441.78;4874610;29;20052;-79
2022/09/12 10:16:22;;;;;;;14.90;8.25;;;;;;;22.18;61.23;101446.34;4860424;29;20045;-79
2022/09/12 10:18:51;;;;;;;12.10;8.18;;;;;;;22.22;60.95;101450.63;4861869;29;20068;-79
2022/09/12 10:21:31;;;;;;;10.70;7.55;;;;;;;22.41;62.85;101434.16;4860492;29;20498;-79
2022/09/12 10:24:20;;;;;;;14.27;7.88;;;;;;;22.60;62.71;101438.41;4875241;29;20156;-80
2022/09/12 10:26:50;;;;;;;12.80;7.57;;;;;;;22.56;60.27;101428.78;4864236;29;20142;-79
2022/09/12 10:29:23;;;;;;;7.88;7.03;;;;;;;22.46;58.39;101434.75;4872778;29;20108;-79
2022/09/12 10:31:58;;;;;;;10.68;7.18;;;;;;;22.48;59.60;101426.56;4866800;29;20037;-79
2022/09/12 10:34:32;;;;;;;9.45;6.57;;;;;;;22.52;59.79;101418.16;4866855;29;20120;-80
2022/09/12 10:37:07;;;;;;;11.18;6.32;;;;;;;22.56;59.49;101413.44;4870375;29;20048;-79
2022/09/12 10:39:34;;;;;;;9.05;6.00;;;;;;;22.68;56.44;101420.78;4866223;29;20082;-79
2022/09/12 10:42:01;;;;;;;8.63;7.20;;;;;;;22.68;55.60;101414.50;4868120;29;20542;-80
2022/09/12 10:44:31;;;;;;;11.73;6.50;;;;;;;22.58;57.44;101403.44;4862977;29;20048;-79
2022/09/12 10:46:59;;;;;;;9.80;6.53;;;;;;;22.58;56.56;101394.47;4857463;29;20077;-79
2022/09/12 10:49:26;;;;;;;10.52;5.53;;;;;;;22.81;58.96;101393.00;4878287;29;20104;-80
2022/09/12 10:51:54;;;;;;;13.00;6.45;;;;;;;23.07;57.43;101396.72;4864994;29;20043;-79
2022/09/12 10:54:23;;;;;;;11.00;6.30;;;;;;;23.28;56.24;101399.84;4878496;29;20041;-79
2022/09/12 10:57:07;;;;;;;6.90;5.40;;;;;;;23.49;55.72;101395.72;4868600;29;20033;-80
2022/09/12 10:59:54;;;;;;;11.63;6.20;;;;;;;23.61;54.91;101389.47;4869093;29;20625;-79
2022/09/12 11:02:45;;;;;;;10.70;5.43;;;;;;;23.79;56.29;101381.09;4853047;29;20394;-79
2022/09/12 11:05:20;;;;;;;7.90;6.50;;;;;;;24.01;57.13;101378.63;4863536;29;20144;-80
2022/09/12 11:08:03;;;;;;;8.90;6.70;;;;;;;23.98;53.20;101377.97;4861121;29;20052;-80
2022/09/12 11:10:55;;;;;;;10.13;5.78;;;;;;;24.12;55.91;101374.31;4860671;29;20045;-80
2022/09/12 11:14:03;;;;;;;9.05;4.20;;;;;;;24.16;54.13;101365.88;4859750;29;20471;-80
2022/09/12 11:16:59;;;;;;;5.68;3.95;;;;;;;24.29;51.90;101365.84;4852323;29;20041;-80
2022/09/12 11:19:39;;;;;;;7.53;3.92;;;;;;;24.41;52.86;101361.41;4857906;29;20061;-80
2022/09/12 11:22:05;;;;;;;5.13;3.42;;;;;;;24.57;52.75;101358.47;4860415;29;20121;-80
2022/09/12 11:24:57;;;;;;;5.55;3.40;;;;;;;24.73;51.50;101353.69;4862904;29;20045;-80
2022/09/12 11:27:49;;;;;;;6.30;3.15;;;;;;;24.68;49.22;101361.28;4871111;29;20053;-80
2022/09/12 11:30:16;;;;;;;5.50;3.00;;;;;;;24.97;53.25;101363.66;4849579;29;20182;-79
2022/09/12 11:33:22;;;;;;;5.20;3.08;;;;;;;25.03;50.94;101366.81;4859401;29;20053;-79
2022/09/12 11:35:49;;;;;;;6.57;3.60;;;;;;;25.32;50.94;101363.75;4864612;29;20045;-80